sensor_id;sensor_type;location;lat;lon;timestamp;P1;durP1;ratioP1;P2;durP2;ratioP2
71610;SDS011;59459;51.172;6.682;2022-10-16T13:15:58;2.30;;;1.20;;
71610;SDS011;59459;51.172;6.682;2022-10-16T13:18:32;2.35;;;0.90;;
71610;SDS011;59459;51.172;6.682;2022-10-16T13:21:07;2.50;;;1.00;;
71610;SDS011;59459;51.172;6.682;2022-10-16T13:26:31;3.15;;;1.48;;
71610;SDS011;59459;51.172;6.682;2022-10-16T13:29:03;2.63;;;1.35;;
71610;SDS011;59459;51.172;6.682;2022-10-16T13:31:28;2.83;;;1.13;;
71610;SDS011;59459;51.172;6.682;2022-10-16T13:33:57;3.25;;;1.40;;
71610;SDS011;59459;51.172;6.682;2022-10-16T13:41:35;3.83;;;1.02;;
71610;SDS011;59459;51.172;6.682;2022-10-16T13:44:01;2.10;;;0.70;;
71610;SDS011;59459;51.172;6.682;2022-10-16T13:46:32;1.57;;;0.73;;
71610;SDS011;59459;51.172;6.682;2022-10-16T13:49:32;1.65;;;0.85;;
71610;SDS011;59459;51.172;6.682;2022-10-16T13:51:54;2.40;;;0.97;;
71610;SDS011;59459;51.172;6.682;2022-10-16T13:54:19;6.85;;;0.80;;
71610;SDS011;59459;51.172;6.682;2022-10-16T13:56:45;3.77;;;0.80;;
71610;SDS011;59459;51.172;6.682;2022-10-16T14:01:47;4.68;;;0.95;;
71610;SDS011;59459;51.172;6.682;2022-10-16T14:04:13;2.87;;;0.90;;
71610;SDS011;59459;51.172;6.682;2022-10-16T14:06:43;2.85;;;0.80;;
71610;SDS011;59459;51.172;6.682;2022-10-16T14:11:50;2.85;;;0.70;;
71610;SDS011;59459;51.172;6.682;2022-10-16T14:14:16;3.33;;;0.80;;
71610;SDS011;59459;51.172;6.682;2022-10-16T14:16:42;6.57;;;1.17;;
71610;SDS011;59459;51.172;6.682;2022-10-16T14:19:16;3.20;;;1.03;;
71610;SDS011;59459;51.172;6.682;2022-10-16T14:21:43;3.72;;;1.10;;
71610;SDS011;59459;51.172;6.682;2022-10-16T14:26:52;5.60;;;0.88;;
71610;SDS011;59459;51.172;6.682;2022-10-16T14:29:20;4.60;;;0.95;;
71610;SDS011;59459;51.172;6.682;2022-10-16T14:31:58;4.33;;;0.73;;
71610;SDS011;59459;51.172;6.682;2022-10-16T14:34:28;3.70;;;0.87;;
71610;SDS011;59459;51.172;6.682;2022-10-16T14:36:55;5.03;;;0.88;;
71610;SDS011;59459;51.172;6.682;2022-10-16T14:39:21;5.63;;;1.30;;
71610;SDS011;59459;51.172;6.682;2022-10-16T14:41:48;5.30;;;0.60;;
71610;SDS011;59459;51.172;6.682;2022-10-16T14:44:13;3.08;;;0.70;;
71610;SDS011;59459;51.172;6.682;2022-10-16T14:46:39;5.77;;;1.30;;
71610;SDS011;59459;51.172;6.682;2022-10-16T14:51:37;4.78;;;1.30;;
71610;SDS011;59459;51.172;6.682;2022-10-16T14:54:02;5.75;;;1.02;;
71610;SDS011;59459;51.172;6.682;2022-10-16T14:56:31;2.73;;;0.60;;
71610;SDS011;59459;51.172;6.682;2022-10-16T14:58:59;3.22;;;0.70;;
71610;SDS011;59459;51.172;6.682;2022-10-16T15:01:25;4.90;;;0.77;;
71610;SDS011;59459;51.172;6.682;2022-10-16T15:03:51;3.40;;;0.80;;
71610;SDS011;59459;51.172;6.682;2022-10-16T15:06:17;2.95;;;1.00;;
71610;SDS011;59459;51.172;6.682;2022-10-16T15:08:43;4.90;;;1.00;;
71610;SDS011;59459;51.172;6.682;2022-10-16T15:11:18;7.47;;;1.10;;
71610;SDS011;59459;51.172;6.682;2022-10-16T15:13:43;3.38;;;0.80;;
71610;SDS011;59459;51.172;6.682;2022-10-16T15:16:13;2.87;;;0.80;;
71610;SDS011;59459;51.172;6.682;2022-10-16T15:18:38;5.25;;;0.80;;
71610;SDS011;59459;51.172;6.682;2022-10-16T15:21:04;1.87;;;0.67;;
71610;SDS011;59459;51.172;6.682;2022-10-16T15:23:29;2.93;;;1.00;;
71610;SDS011;59459;51.172;6.682;2022-10-16T15:25:55;6.13;;;1.13;;
71610;SDS011;59459;51.172;6.682;2022-10-16T15:28:21;2.55;;;0.90;;
71610;SDS011;59459;51.172;6.682;2022-10-16T15:30:46;3.50;;;0.88;;
71610;SDS011;59459;51.172;6.682;2022-10-16T15:33:14;6.85;;;1.25;;
71610;SDS011;59459;51.172;6.682;2022-10-16T15:35:40;5.57;;;1.30;;
71610;SDS011;59459;51.172;6.682;2022-10-16T15:38:05;5.10;;;1.27;;
71610;SDS011;59459;51.172;6.682;2022-10-16T15:40:31;3.97;;;1.37;;
71610;SDS011;59459;51.172;6.682;2022-10-16T15:42:56;5.33;;;1.40;;
71610;SDS011;59459;51.172;6.682;2022-10-16T15:45:21;6.07;;;1.30;;
71610;SDS011;59459;51.172;6.682;2022-10-16T15:47:46;6.23;;;1.10;;
71610;SDS011;59459;51.172;6.682;2022-10-16T15:50:12;7.40;;;1.40;;
71610;SDS011;59459;51.172;6.682;2022-10-16T15:52:38;3.47;;;0.93;;
71610;SDS011;59459;51.172;6.682;2022-10-16T15:55:04;4.50;;;1.13;;
71610;SDS011;59459;51.172;6.682;2022-10-16T15:57:29;2.60;;;0.70;;
71610;SDS011;59459;51.172;6.682;2022-10-16T15:59:55;2.97;;;0.80;;
71610;SDS011;59459;51.172;6.682;2022-10-16T16:02:20;4.57;;;1.17;;
71610;SDS011;59459;51.172;6.682;2022-10-16T16:04:45;5.33;;;1.43;;
71610;SDS011;59459;51.172;6.682;2022-10-16T16:07:10;5.73;;;1.00;;
71610;SDS011;59459;51.172;6.682;2022-10-16T16:09:36;3.77;;;1.20;;
71610;SDS011;59459;51.172;6.682;2022-10-16T16:12:01;3.33;;;1.07;;
71610;SDS011;59459;51.172;6.682;2022-10-16T16:14:29;3.43;;;1.07;;
71610;SDS011;59459;51.172;6.682;2022-10-16T16:16:54;4.00;;;1.10;;
71610;SDS011;59459;51.172;6.682;2022-10-16T16:19:20;3.53;;;1.53;;
71610;SDS011;59459;51.172;6.682;2022-10-16T16:21:49;5.82;;;0.85;;
71610;SDS011;59459;51.172;6.682;2022-10-16T16:24:14;3.83;;;1.45;;
71610;SDS011;59459;51.172;6.682;2022-10-16T16:26:39;5.07;;;0.80;;
71610;SDS011;59459;51.172;6.682;2022-10-16T16:29:08;4.35;;;1.02;;
71610;SDS011;59459;51.172;6.682;2022-10-16T16:31:36;5.13;;;1.33;;
71610;SDS011;59459;51.172;6.682;2022-10-16T16:34:01;3.67;;;1.10;;
71610;SDS011;59459;51.172;6.682;2022-10-16T16:36:26;7.00;;;1.63;;
71610;SDS011;59459;51.172;6.682;2022-10-16T16:38:51;10.53;;;2.20;;
71610;SDS011;59459;51.172;6.682;2022-10-16T16:41:18;9.00;;;2.23;;
71610;SDS011;59459;51.172;6.682;2022-10-16T16:43:44;7.93;;;1.95;;
71610;SDS011;59459;51.172;6.682;2022-10-16T16:46:09;7.17;;;2.00;;
71610;SDS011;59459;51.172;6.682;2022-10-16T16:48:35;6.10;;;2.00;;
71610;SDS011;59459;51.172;6.682;2022-10-16T16:51:07;7.45;;;1.90;;
71610;SDS011;59459;51.172;6.682;2022-10-16T16:53:33;5.07;;;1.90;;
71610;SDS011;59459;51.172;6.682;2022-10-16T16:56:02;6.32;;;1.83;;
71610;SDS011;59459;51.172;6.682;2022-10-16T16:58:27;5.18;;;1.92;;
71610;SDS011;59459;51.172;6.682;2022-10-16T17:00:52;6.73;;;2.07;;
71610;SDS011;59459;51.172;6.682;2022-10-16T17:03:18;10.67;;;2.27;;
71610;SDS011;59459;51.172;6.682;2022-10-16T17:05:43;5.03;;;1.70;;
71610;SDS011;59459;51.172;6.682;2022-10-16T17:08:08;7.93;;;1.37;;
71610;SDS011;59459;51.172;6.682;2022-10-16T17:10:33;4.40;;;1.50;;
71610;SDS011;59459;51.172;6.682;2022-10-16T17:12:58;5.93;;;1.50;;
71610;SDS011;59459;51.172;6.682;2022-10-16T17:15:24;4.87;;;1.43;;
71610;SDS011;59459;51.172;6.682;2022-10-16T17:17:49;4.80;;;1.63;;
71610;SDS011;59459;51.172;6.682;2022-10-16T17:20:14;5.73;;;1.60;;
71610;SDS011;59459;51.172;6.682;2022-10-16T17:22:39;3.83;;;1.53;;
71610;SDS011;59459;51.172;6.682;2022-10-16T17:25:05;4.45;;;1.98;;
71610;SDS011;59459;51.172;6.682;2022-10-16T17:27:32;4.75;;;1.90;;
71610;SDS011;59459;51.172;6.682;2022-10-16T17:29:58;5.30;;;2.03;;
71610;SDS011;59459;51.172;6.682;2022-10-16T17:32:23;4.83;;;1.40;;
71610;SDS011;59459;51.172;6.682;2022-10-16T17:34:48;5.77;;;1.60;;
71610;SDS011;59459;51.172;6.682;2022-10-16T17:37:13;6.47;;;1.67;;
71610;SDS011;59459;51.172;6.682;2022-10-16T17:39:39;6.67;;;1.53;;
71610;SDS011;59459;51.172;6.682;2022-10-16T17:42:04;6.83;;;1.90;;
71610;SDS011;59459;51.172;6.682;2022-10-16T17:44:29;6.07;;;1.80;;
71610;SDS011;59459;51.172;6.682;2022-10-16T17:46:54;3.97;;;1.50;;
71610;SDS011;59459;51.172;6.682;2022-10-16T17:49:20;7.93;;;1.93;;
71610;SDS011;59459;51.172;6.682;2022-10-16T17:51:47;4.93;;;1.70;;
71610;SDS011;59459;51.172;6.682;2022-10-16T17:54:13;7.28;;;2.67;;
71610;SDS011;59459;51.172;6.682;2022-10-16T17:56:38;7.10;;;3.90;;
71610;SDS011;59459;51.172;6.682;2022-10-16T17:59:04;5.33;;;3.07;;
71610;SDS011;59459;51.172;6.682;2022-10-16T18:01:34;6.60;;;3.25;;
71610;SDS011;59459;51.172;6.682;2022-10-16T18:04:10;6.35;;;2.88;;
71610;SDS011;59459;51.172;6.682;2022-10-16T18:06:37;5.20;;;2.20;;
71610;SDS011;59459;51.172;6.682;2022-10-16T18:09:03;4.72;;;2.75;;
71610;SDS011;59459;51.172;6.682;2022-10-16T18:11:28;6.13;;;2.67;;
71610;SDS011;59459;51.172;6.682;2022-10-16T18:13:54;7.97;;;2.80;;
71610;SDS011;59459;51.172;6.682;2022-10-16T18:16:20;5.55;;;2.20;;
71610;SDS011;59459;51.172;6.682;2022-10-16T18:18:45;8.87;;;2.40;;
71610;SDS011;59459;51.172;6.682;2022-10-16T18:21:11;12.90;;;2.63;;
71610;SDS011;59459;51.172;6.682;2022-10-16T18:23:37;8.43;;;1.80;;
71610;SDS011;59459;51.172;6.682;2022-10-16T18:26:03;7.07;;;1.70;;
71610;SDS011;59459;51.172;6.682;2022-10-16T18:28:29;4.90;;;1.80;;
71610;SDS011;59459;51.172;6.682;2022-10-16T18:30:58;6.17;;;1.50;;
71610;SDS011;59459;51.172;6.682;2022-10-16T18:33:23;10.20;;;1.95;;
71610;SDS011;59459;51.172;6.682;2022-10-16T18:35:49;4.43;;;1.90;;
71610;SDS011;59459;51.172;6.682;2022-10-16T18:38:14;5.40;;;1.65;;
71610;SDS011;59459;51.172;6.682;2022-10-16T18:40:39;4.57;;;2.10;;
71610;SDS011;59459;51.172;6.682;2022-10-16T18:43:05;5.10;;;1.90;;
71610;SDS011;59459;51.172;6.682;2022-10-16T18:45:30;5.13;;;1.83;;
71610;SDS011;59459;51.172;6.682;2022-10-16T18:47:55;5.63;;;2.03;;
71610;SDS011;59459;51.172;6.682;2022-10-16T18:50:21;6.20;;;2.47;;
71610;SDS011;59459;51.172;6.682;2022-10-16T18:52:49;6.20;;;2.58;;
71610;SDS011;59459;51.172;6.682;2022-10-16T18:55:14;7.57;;;3.03;;
71610;SDS011;59459;51.172;6.682;2022-10-16T18:57:39;7.33;;;2.67;;
71610;SDS011;59459;51.172;6.682;2022-10-16T19:00:07;6.30;;;2.60;;
71610;SDS011;59459;51.172;6.682;2022-10-16T19:02:33;6.05;;;2.60;;
71610;SDS011;59459;51.172;6.682;2022-10-16T19:04:58;11.30;;;3.77;;
71610;SDS011;59459;51.172;6.682;2022-10-16T19:07:23;16.37;;;8.77;;
71610;SDS011;59459;51.172;6.682;2022-10-16T19:09:49;10.87;;;5.50;;
71610;SDS011;59459;51.172;6.682;2022-10-16T19:12:14;13.20;;;5.70;;
71610;SDS011;59459;51.172;6.682;2022-10-16T19:14:39;11.73;;;5.13;;
71610;SDS011;59459;51.172;6.682;2022-10-16T19:17:05;11.07;;;5.13;;
71610;SDS011;59459;51.172;6.682;2022-10-16T19:19:30;11.67;;;6.47;;
71610;SDS011;59459;51.172;6.682;2022-10-16T19:21:55;12.47;;;5.60;;
71610;SDS011;59459;51.172;6.682;2022-10-16T19:24:35;12.10;;;6.20;;
71610;SDS011;59459;51.172;6.682;2022-10-16T19:27:00;32.70;;;15.97;;
71610;SDS011;59459;51.172;6.682;2022-10-16T19:29:25;30.50;;;13.80;;
71610;SDS011;59459;51.172;6.682;2022-10-16T19:31:50;26.37;;;12.73;;
71610;SDS011;59459;51.172;6.682;2022-10-16T19:34:16;33.77;;;14.63;;
71610;SDS011;59459;51.172;6.682;2022-10-16T19:36:41;32.23;;;14.43;;
71610;SDS011;59459;51.172;6.682;2022-10-16T19:39:07;34.17;;;16.37;;
71610;SDS011;59459;51.172;6.682;2022-10-16T19:41:35;38.95;;;18.55;;
71610;SDS011;59459;51.172;6.682;2022-10-16T19:44:01;38.77;;;18.47;;
71610;SDS011;59459;51.172;6.682;2022-10-16T19:46:26;38.95;;;18.50;;
71610;SDS011;59459;51.172;6.682;2022-10-16T19:48:58;26.50;;;12.20;;
71610;SDS011;59459;51.172;6.682;2022-10-16T19:51:24;24.30;;;12.13;;
71610;SDS011;59459;51.172;6.682;2022-10-16T19:53:52;27.00;;;13.27;;
71610;SDS011;59459;51.172;6.682;2022-10-16T19:56:19;29.48;;;12.32;;
71610;SDS011;59459;51.172;6.682;2022-10-16T19:58:48;24.17;;;11.83;;
71610;SDS011;59459;51.172;6.682;2022-10-16T20:01:14;24.77;;;11.13;;
71610;SDS011;59459;51.172;6.682;2022-10-16T20:03:41;24.33;;;10.27;;
71610;SDS011;59459;51.172;6.682;2022-10-16T20:06:07;20.17;;;8.98;;
71610;SDS011;59459;51.172;6.682;2022-10-16T20:08:33;20.60;;;9.80;;
71610;SDS011;59459;51.172;6.682;2022-10-16T20:10:59;20.23;;;8.37;;
71610;SDS011;59459;51.172;6.682;2022-10-16T20:13:25;18.33;;;8.10;;
71610;SDS011;59459;51.172;6.682;2022-10-16T20:15:50;14.27;;;6.77;;
71610;SDS011;59459;51.172;6.682;2022-10-16T20:18:15;13.20;;;5.50;;
71610;SDS011;59459;51.172;6.682;2022-10-16T20:20:41;9.87;;;5.07;;
71610;SDS011;59459;51.172;6.682;2022-10-16T20:23:07;10.25;;;5.75;;
71610;SDS011;59459;51.172;6.682;2022-10-16T20:25:39;10.73;;;5.10;;
71610;SDS011;59459;51.172;6.682;2022-10-16T20:28:05;12.80;;;5.82;;
71610;SDS011;59459;51.172;6.682;2022-10-16T20:30:48;14.18;;;6.28;;
71610;SDS011;59459;51.172;6.682;2022-10-16T20:33:14;13.05;;;6.35;;
71610;SDS011;59459;51.172;6.682;2022-10-16T20:35:41;15.30;;;6.77;;
71610;SDS011;59459;51.172;6.682;2022-10-16T20:38:06;9.43;;;4.85;;
71610;SDS011;59459;51.172;6.682;2022-10-16T20:40:35;15.03;;;6.50;;
71610;SDS011;59459;51.172;6.682;2022-10-16T20:43:00;11.13;;;5.57;;
71610;SDS011;59459;51.172;6.682;2022-10-16T20:45:26;15.52;;;6.00;;
71610;SDS011;59459;51.172;6.682;2022-10-16T20:47:51;9.80;;;4.87;;
71610;SDS011;59459;51.172;6.682;2022-10-16T20:50:16;12.60;;;5.30;;
71610;SDS011;59459;51.172;6.682;2022-10-16T20:52:42;9.87;;;5.03;;
71610;SDS011;59459;51.172;6.682;2022-10-16T20:55:07;11.03;;;4.90;;
71610;SDS011;59459;51.172;6.682;2022-10-16T20:57:32;9.03;;;4.37;;
71610;SDS011;59459;51.172;6.682;2022-10-16T20:59:58;7.90;;;4.07;;
71610;SDS011;59459;51.172;6.682;2022-10-16T21:02:23;11.23;;;4.37;;
71610;SDS011;59459;51.172;6.682;2022-10-16T21:04:48;10.33;;;4.50;;
71610;SDS011;59459;51.172;6.682;2022-10-16T21:07:14;7.50;;;3.80;;
71610;SDS011;59459;51.172;6.682;2022-10-16T21:09:39;8.97;;;4.17;;
71610;SDS011;59459;51.172;6.682;2022-10-16T21:12:04;16.70;;;4.63;;
71610;SDS011;59459;51.172;6.682;2022-10-16T21:14:30;10.00;;;4.00;;
71610;SDS011;59459;51.172;6.682;2022-10-16T21:16:55;10.07;;;4.00;;
71610;SDS011;59459;51.172;6.682;2022-10-16T21:19:20;7.63;;;3.75;;
71610;SDS011;59459;51.172;6.682;2022-10-16T21:21:45;9.40;;;3.90;;
71610;SDS011;59459;51.172;6.682;2022-10-16T21:24:11;7.27;;;3.27;;
71610;SDS011;59459;51.172;6.682;2022-10-16T21:26:37;10.45;;;3.90;;
71610;SDS011;59459;51.172;6.682;2022-10-16T21:29:04;9.27;;;3.40;;
71610;SDS011;59459;51.172;6.682;2022-10-16T21:31:29;9.40;;;3.67;;
71610;SDS011;59459;51.172;6.682;2022-10-16T21:33:55;7.90;;;3.10;;
71610;SDS011;59459;51.172;6.682;2022-10-16T21:36:22;7.77;;;2.63;;
71610;SDS011;59459;51.172;6.682;2022-10-16T21:38:48;6.63;;;2.97;;
71610;SDS011;59459;51.172;6.682;2022-10-16T21:41:23;6.27;;;2.67;;
71610;SDS011;59459;51.172;6.682;2022-10-16T21:43:49;8.70;;;2.75;;
71610;SDS011;59459;51.172;6.682;2022-10-16T21:46:15;8.88;;;3.22;;
71610;SDS011;59459;51.172;6.682;2022-10-16T21:48:41;7.22;;;3.10;;
71610;SDS011;59459;51.172;6.682;2022-10-16T21:51:09;9.57;;;2.90;;
71610;SDS011;59459;51.172;6.682;2022-10-16T21:53:34;5.72;;;2.80;;
71610;SDS011;59459;51.172;6.682;2022-10-16T21:56:00;8.23;;;2.73;;
71610;SDS011;59459;51.172;6.682;2022-10-16T21:58:25;6.67;;;2.70;;
71610;SDS011;59459;51.172;6.682;2022-10-16T22:00:50;7.03;;;3.05;;
71610;SDS011;59459;51.172;6.682;2022-10-16T22:03:16;12.47;;;2.73;;
71610;SDS011;59459;51.172;6.682;2022-10-16T22:05:41;8.13;;;2.90;;
71610;SDS011;59459;51.172;6.682;2022-10-16T22:08:06;8.17;;;2.93;;
71610;SDS011;59459;51.172;6.682;2022-10-16T22:10:31;7.13;;;2.60;;
71610;SDS011;59459;51.172;6.682;2022-10-16T22:12:57;6.63;;;2.90;;
71610;SDS011;59459;51.172;6.682;2022-10-16T22:15:22;7.90;;;3.30;;
71610;SDS011;59459;51.172;6.682;2022-10-16T22:17:47;8.80;;;2.93;;
71610;SDS011;59459;51.172;6.682;2022-10-16T22:20:12;7.07;;;2.97;;
71610;SDS011;59459;51.172;6.682;2022-10-16T22:22:37;8.60;;;3.33;;
71610;SDS011;59459;51.172;6.682;2022-10-16T22:25:03;7.60;;;3.40;;
71610;SDS011;59459;51.172;6.682;2022-10-16T22:27:28;6.83;;;3.47;;
71610;SDS011;59459;51.172;6.682;2022-10-16T22:29:53;10.73;;;3.67;;
71610;SDS011;59459;51.172;6.682;2022-10-16T22:32:19;7.70;;;3.47;;
71610;SDS011;59459;51.172;6.682;2022-10-16T22:34:44;9.50;;;4.00;;
71610;SDS011;59459;51.172;6.682;2022-10-16T22:37:10;8.63;;;3.17;;
71610;SDS011;59459;51.172;6.682;2022-10-16T22:39:35;8.60;;;3.40;;
71610;SDS011;59459;51.172;6.682;2022-10-16T22:42:00;7.77;;;3.57;;
71610;SDS011;59459;51.172;6.682;2022-10-16T22:44:27;8.50;;;3.85;;
71610;SDS011;59459;51.172;6.682;2022-10-16T22:46:53;9.00;;;3.67;;
71610;SDS011;59459;51.172;6.682;2022-10-16T22:49:18;10.90;;;4.13;;
71610;SDS011;59459;51.172;6.682;2022-10-16T22:51:44;9.85;;;4.25;;
71610;SDS011;59459;51.172;6.682;2022-10-16T22:54:09;12.23;;;4.17;;
71610;SDS011;59459;51.172;6.682;2022-10-16T22:56:34;7.30;;;3.60;;
71610;SDS011;59459;51.172;6.682;2022-10-16T22:59:00;8.17;;;4.13;;
71610;SDS011;59459;51.172;6.682;2022-10-16T23:01:33;10.43;;;4.40;;
71610;SDS011;59459;51.172;6.682;2022-10-16T23:03:59;8.73;;;4.37;;
71610;SDS011;59459;51.172;6.682;2022-10-16T23:06:25;9.52;;;4.22;;
71610;SDS011;59459;51.172;6.682;2022-10-16T23:08:54;9.17;;;4.00;;
71610;SDS011;59459;51.172;6.682;2022-10-16T23:11:20;10.30;;;4.60;;
71610;SDS011;59459;51.172;6.682;2022-10-16T23:13:45;7.97;;;4.13;;
71610;SDS011;59459;51.172;6.682;2022-10-16T23:16:11;10.77;;;4.00;;
71610;SDS011;59459;51.172;6.682;2022-10-16T23:18:37;9.20;;;4.67;;
71610;SDS011;59459;51.172;6.682;2022-10-16T23:21:06;8.77;;;4.55;;
71610;SDS011;59459;51.172;6.682;2022-10-16T23:23:33;8.88;;;4.30;;
71610;SDS011;59459;51.172;6.682;2022-10-16T23:25:58;10.37;;;4.37;;
71610;SDS011;59459;51.172;6.682;2022-10-16T23:28:23;10.03;;;4.83;;
71610;SDS011;59459;51.172;6.682;2022-10-16T23:30:48;9.77;;;4.83;;
71610;SDS011;59459;51.172;6.682;2022-10-16T23:33:13;12.70;;;5.17;;
71610;SDS011;59459;51.172;6.682;2022-10-16T23:35:39;10.47;;;4.47;;
71610;SDS011;59459;51.172;6.682;2022-10-16T23:38:04;10.18;;;4.82;;
71610;SDS011;59459;51.172;6.682;2022-10-16T23:40:30;13.67;;;5.07;;
71610;SDS011;59459;51.172;6.682;2022-10-16T23:42:55;9.87;;;5.13;;
71610;SDS011;59459;51.172;6.682;2022-10-16T23:45:20;11.03;;;5.17;;
71610;SDS011;59459;51.172;6.682;2022-10-16T23:47:45;10.87;;;5.20;;
71610;SDS011;59459;51.172;6.682;2022-10-16T23:50:11;11.97;;;5.70;;
71610;SDS011;59459;51.172;6.682;2022-10-16T23:52:36;10.97;;;5.27;;
71610;SDS011;59459;51.172;6.682;2022-10-16T23:55:01;8.73;;;4.90;;
71610;SDS011;59459;51.172;6.682;2022-10-16T23:57:26;13.03;;;5.50;;
71610;SDS011;59459;51.172;6.682;2022-10-16T23:59:52;9.70;;;5.20;;
